Time;durP1;ratioP1;P1;durP2;ratioP2;P2;SDS_P1;SDS_P2;PMS_P1;PMS_P2;Temp;Humidity;BMP_temperature;BMP_pressure;BME280_temperature;BME280_humidity;BME280_pressure;Samples;Min_cycle;Max_cycle;Signal;HPM_P1;HPM_P2
2022/05/26 00:00:31;;;;;;;11.68;10.48;;;;;;;22.48;52.25;98919.94;5012693;28;20389;-74
2022/05/26 00:02:57;;;;;;;10.50;9.38;;;;;;;22.47;52.26;98920.94;5011216;28;20113;-75
2022/05/26 00:05:22;;;;;;;12.15;10.20;;;;;;;22.44;52.52;98908.00;5012089;28;20467;-74
2022/05/26 00:07:48;;;;;;;13.10;10.18;;;;;;;22.45;52.61;98904.34;5011249;28;20026;-77
2022/05/26 00:10:13;;;;;;;10.90;9.80;;;;;;;22.44;52.48;98905.34;4994693;28;20041;-74
2022/05/26 00:12:39;;;;;;;15.45;10.48;;;;;;;22.44;52.24;98906.19;4994903;28;20527;-74
2022/05/26 00:15:05;;;;;;;11.20;10.13;;;;;;;22.42;52.29;98908.19;5010921;28;20409;-74
2022/05/26 00:17:30;;;;;;;11.27;10.15;;;;;;;22.41;52.18;98911.91;5011114;28;20029;-74
2022/05/26 00:19:56;;;;;;;11.50;10.40;;;;;;;22.39;52.13;98897.94;5012447;28;20409;-76
2022/05/26 00:22:22;;;;;;;11.23;10.00;;;;;;;22.35;52.19;98904.66;4995013;28;20113;-76
2022/05/26 00:24:47;;;;;;;14.02;10.07;;;;;;;22.33;52.15;98898.69;5011104;28;20116;-76
2022/05/26 00:27:13;;;;;;;10.77;9.75;;;;;;;22.29;52.27;98892.91;5011120;28;20061;-76
2022/05/26 00:29:39;;;;;;;11.15;10.05;;;;;;;22.29;52.54;98903.53;5011307;28;20034;-76
2022/05/26 00:32:05;;;;;;;10.98;9.98;;;;;;;22.26;52.23;98893.28;4978897;28;20144;-76
2022/05/26 00:34:31;;;;;;;11.15;10.05;;;;;;;22.27;52.23;98894.13;4978009;28;20034;-76
2022/05/26 00:36:56;;;;;;;11.25;10.13;;;;;;;22.25;52.45;98891.66;5012665;28;20060;-76
2022/05/26 00:39:22;;;;;;;12.07;10.43;;;;;;;22.23;52.19;98883.88;4998446;28;20459;-76
2022/05/26 00:42:00;;;;;;;12.05;10.65;;;;;;;22.23;52.38;98886.53;5014750;28;20030;-76
2022/05/26 00:44:26;;;;;;;12.35;10.07;;;;;;;22.23;52.22;98875.06;4999531;28;20083;-75
2022/05/26 00:47:07;;;;;;;11.27;10.18;;;;;;;22.26;52.37;98879.19;5014756;28;20125;-76
2022/05/26 00:49:54;;;;;;;10.55;9.10;;;;;;;22.21;52.32;98864.59;5016184;28;20112;-76
2022/05/26 00:52:22;;;;;;;11.63;10.43;;;;;;;22.25;52.12;98869.53;5014865;28;20060;-78
2022/05/26 00:54:48;;;;;;;13.70;10.10;;;;;;;22.28;52.39;98878.00;4998524;28;20087;-75
2022/05/26 00:57:21;;;;;;;11.73;9.52;;;;;;;22.29;52.24;98876.94;5014269;28;20042;-76
2022/05/26 00:59:53;;;;;;;10.20;9.25;;;;;;;22.25;52.19;98875.72;4998728;28;20030;-76
2022/05/26 01:02:20;;;;;;;10.70;9.68;;;;;;;22.22;52.25;98878.75;5014781;28;20029;-76
2022/05/26 01:04:53;;;;;;;11.27;10.18;;;;;;;22.20;52.02;98865.63;4997673;28;20547;-76
2022/05/26 01:07:21;;;;;;;11.70;9.55;;;;;;;22.18;52.19;98872.13;4998395;28;20128;-76
2022/05/26 01:09:46;;;;;;;11.57;9.93;;;;;;;22.14;52.07;98868.19;4998070;28;20034;-75
2022/05/26 01:12:12;;;;;;;15.00;9.63;;;;;;;22.07;52.10;98854.03;5013986;28;20401;-76
2022/05/26 01:14:42;;;;;;;13.43;9.80;;;;;;;22.09;52.20;98863.47;5014441;28;20033;-76
2022/05/26 01:17:45;;;;;;;10.80;9.70;;;;;;;22.08;52.24;98868.97;5013602;28;20084;-75
2022/05/26 01:20:49;;;;;;;12.35;10.23;;;;;;;22.06;52.47;98879.81;5016588;28;20045;-76
2022/05/26 01:23:41;;;;;;;11.18;9.80;;;;;;;22.03;52.43;98878.34;4999961;28;20048;-75
2022/05/26 01:26:48;;;;;;;12.48;9.88;;;;;;;22.05;52.70;98876.31;5018008;28;20037;-76
2022/05/26 01:29:38;;;;;;;11.02;9.93;;;;;;;22.04;52.53;98871.16;4916755;29;20126;-76
2022/05/26 01:32:04;;;;;;;10.93;9.82;;;;;;;22.03;52.43;98870.34;4916531;29;20605;-76
2022/05/26 01:34:59;;;;;;;10.07;9.18;;;;;;;22.00;52.25;98861.94;4915782;29;20052;-78
2022/05/26 01:37:43;;;;;;;10.52;9.30;;;;;;;22.04;52.34;98861.38;4916285;29;20040;-76
2022/05/26 01:40:29;;;;;;;10.55;9.45;;;;;;;22.04;52.31;98856.06;4916184;29;20488;-75
2022/05/26 01:43:29;;;;;;;10.73;9.68;;;;;;;22.00;52.24;98838.84;4916137;29;20080;-76
2022/05/26 01:46:03;;;;;;;10.07;9.07;;;;;;;21.97;52.55;98844.53;4878483;29;20081;-75
2022/05/26 01:48:35;;;;;;;12.48;9.73;;;;;;;21.94;52.52;98842.25;4878095;29;20049;-76
2022/05/26 01:51:04;;;;;;;11.68;9.85;;;;;;;21.96;52.35;98858.00;4833071;29;20465;-76
2022/05/26 01:53:29;;;;;;;12.15;9.50;;;;;;;21.96;52.54;98864.13;4847613;29;20599;-76
2022/05/26 01:56:18;;;;;;;11.55;9.65;;;;;;;21.94;52.28;98860.03;4867247;29;20050;-76
2022/05/26 01:58:49;;;;;;;10.65;9.55;;;;;;;21.90;52.44;98848.97;4859834;29;20045;-76
2022/05/26 02:01:18;;;;;;;12.30;9.98;;;;;;;21.86;52.45;98848.50;4829494;29;20042;-76
2022/05/26 02:03:45;;;;;;;11.10;9.93;;;;;;;21.85;52.48;98854.00;4828863;29;20077;-76
2022/05/26 02:06:41;;;;;;;11.07;9.87;;;;;;;21.84;52.60;98858.50;4904019;28;20486;-76
2022/05/26 02:09:11;;;;;;;10.80;9.80;;;;;;;21.82;52.75;98851.72;4919075;29;20106;-76
2022/05/26 02:11:56;;;;;;;11.57;10.05;;;;;;;21.81;52.34;98842.09;4919238;29;20050;-76
2022/05/26 02:14:46;;;;;;;11.15;10.02;;;;;;;21.84;52.78;98847.88;4904631;29;20043;-76
2022/05/26 02:17:11;;;;;;;11.18;9.98;;;;;;;21.85;52.48;98854.00;4919613;29;20043;-77
2022/05/26 02:19:39;;;;;;;11.93;10.50;;;;;;;21.85;52.50;98851.34;4949414;28;20043;-76
2022/05/26 02:22:20;;;;;;;11.85;10.60;;;;;;;21.86;52.62;98858.31;4956796;28;20035;-77
2022/05/26 02:24:58;;;;;;;12.32;11.07;;;;;;;21.86;52.61;98855.66;4956828;28;20081;-77
2022/05/26 02:27:26;;;;;;;14.73;11.20;;;;;;;21.86;52.52;98866.28;4973160;28;20117;-77
2022/05/26 02:29:52;;;;;;;13.57;10.50;;;;;;;21.86;52.49;98860.97;4956990;28;20090;-76
2022/05/26 02:32:24;;;;;;;12.25;11.00;;;;;;;21.82;52.30;98857.03;4956653;28;20377;-76
2022/05/26 02:34:50;;;;;;;15.55;10.75;;;;;;;21.82;52.48;98859.69;4956566;28;20141;-77
2022/05/26 02:37:16;;;;;;;13.98;11.48;;;;;;;21.78;52.59;98842.47;4956447;28;20099;-77
2022/05/26 02:39:42;;;;;;;13.70;11.60;;;;;;;21.77;52.48;98857.56;4972408;28;20465;-77
2022/05/26 02:42:07;;;;;;;12.07;10.82;;;;;;;21.77;52.52;98854.91;4956181;28;20070;-77
2022/05/26 02:44:33;;;;;;;13.00;11.60;;;;;;;21.75;52.45;98859.59;4961056;28;20230;-76
2022/05/26 02:47:16;;;;;;;12.80;10.85;;;;;;;21.75;52.21;98858.78;5012417;28;20033;-76
2022/05/26 02:50:00;;;;;;;13.80;11.65;;;;;;;21.73;52.68;98866.09;5013309;28;20489;-76
2022/05/26 02:53:06;;;;;;;14.80;11.27;;;;;;;21.70;52.69;98867.31;5013864;28;20097;-76
2022/05/26 02:55:50;;;;;;;13.23;11.25;;;;;;;21.69;52.68;98870.97;5013104;28;20072;-76
2022/05/26 02:58:22;;;;;;;12.88;11.48;;;;;;;21.69;52.64;98874.44;5013212;28;20532;-76
2022/05/26 03:01:06;;;;;;;12.75;11.00;;;;;;;21.70;52.70;98867.31;5011145;28;20040;-76
2022/05/26 03:03:39;;;;;;;15.77;11.23;;;;;;;21.68;52.59;98856.88;5013450;28;20018;-77
2022/05/26 03:06:07;;;;;;;13.48;11.80;;;;;;;21.73;52.64;98872.25;5013158;28;20508;-76
2022/05/26 03:08:36;;;;;;;14.35;10.85;;;;;;;21.71;52.55;98860.97;5013012;28;20481;-76
2022/05/26 03:11:11;;;;;;;12.93;10.52;;;;;;;21.71;52.55;98858.31;4995911;28;20119;-77
2022/05/26 03:13:37;;;;;;;13.32;10.85;;;;;;;21.77;52.37;98864.75;4972009;28;20045;-76
2022/05/26 03:16:04;;;;;;;12.32;11.02;;;;;;;21.79;52.30;98873.34;5000868;28;20486;-77
2022/05/26 03:18:30;;;;;;;12.23;10.63;;;;;;;21.81;52.27;98866.03;4983677;28;20030;-77
2022/05/26 03:20:59;;;;;;;14.65;11.80;;;;;;;21.81;52.22;98864.19;5000758;28;20022;-75
2022/05/26 03:23:26;;;;;;;12.52;11.15;;;;;;;21.83;52.19;98856.84;5001874;28;20096;-75
2022/05/26 03:25:53;;;;;;;12.65;10.73;;;;;;;21.93;52.02;98866.34;4999418;28;20027;-79
2022/05/26 03:28:19;;;;;;;12.60;11.30;;;;;;;22.02;51.80;98865.22;4984264;28;20029;-76
2022/05/26 03:30:44;;;;;;;13.77;11.45;;;;;;;22.27;52.80;98857.72;5001928;28;20030;-76
2022/05/26 03:33:10;;;;;;;19.77;11.35;;;;;;;22.49;52.12;98863.06;5000272;28;20019;-76
2022/05/26 03:41:04;;;;;;;12.23;10.13;;;;;;;23.44;50.03;98863.56;5001767;28;20116;-76
2022/05/26 03:43:45;;;;;;;24.52;10.40;;;;;;;23.84;48.71;98861.09;4982535;28;20541;-83
2022/05/26 03:46:11;;;;;;;18.42;10.20;;;;;;;24.18;47.58;98868.16;4961206;28;20096;-75
2022/05/26 03:48:36;;;;;;;16.95;11.13;;;;;;;24.20;46.98;98860.75;4992870;28;20101;-74
2022/05/26 03:51:02;;;;;;;12.75;11.45;;;;;;;24.29;46.68;98866.75;4958081;28;20072;-74
2022/05/26 03:53:28;;;;;;;16.92;12.32;;;;;;;24.39;46.76;98867.16;4991260;28;20034;-74
2022/05/26 03:55:53;;;;;;;14.55;11.23;;;;;;;24.62;46.34;98862.47;4992802;28;20030;-74
2022/05/26 03:58:19;;;;;;;14.40;12.02;;;;;;;24.82;45.93;98860.63;4975535;28;20535;-74
2022/05/26 04:00:44;;;;;;;17.33;12.38;;;;;;;25.07;45.48;98865.34;4992720;28;20085;-74
2022/05/26 04:03:10;;;;;;;13.43;11.52;;;;;;;25.36;44.80;98868.59;4975496;28;20494;-74
2022/05/26 04:05:35;;;;;;;15.35;12.90;;;;;;;25.66;44.30;98873.41;4993017;28;20041;-74
2022/05/26 04:08:01;;;;;;;17.08;13.55;;;;;;;26.00;43.38;98872.28;4959100;28;20038;-74
2022/05/26 04:10:26;;;;;;;16.80;13.60;;;;;;;26.36;42.92;98873.47;4992962;28;20033;-74
2022/05/26 04:12:52;;;;;;;18.00;14.38;;;;;;;26.71;41.90;98876.56;4995954;28;20038;-74
2022/05/26 04:15:17;;;;;;;16.73;13.82;;;;;;;27.15;41.03;98876.56;4978793;28;20039;-74
2022/05/26 04:17:43;;;;;;;22.17;13.90;;;;;;;27.48;40.39;98872.72;4997198;28;20064;-73
2022/05/26 04:20:11;;;;;;;18.88;13.95;;;;;;;27.90;39.39;98875.53;4995335;28;20076;-74
2022/05/26 04:22:36;;;;;;;;;;;;;;;28.29;38.47;98875.22;4979746;28;20030;-74
2022/05/26 04:25:02;;;;;;;17.85;13.38;;;;;;;28.68;37.82;98871.09;4995224;28;20008;-74
2022/05/26 04:27:30;;;;;;;18.42;13.50;;;;;;;29.09;37.01;98883.88;4979108;28;20400;-74
2022/05/26 04:29:55;;;;;;;16.30;12.90;;;;;;;29.42;36.25;98885.97;4995124;28;20393;-74
2022/05/26 04:32:21;;;;;;;15.35;12.95;;;;;;;29.72;35.68;98883.09;4996484;28;20030;-74
2022/05/26 04:34:48;;;;;;;17.63;12.35;;;;;;;30.30;34.39;98891.19;4978371;28;20058;-74
2022/05/26 04:37:17;;;;;;;15.88;12.68;;;;;;;30.61;33.77;98897.94;4979034;28;20101;-74
2022/05/26 04:39:42;;;;;;;14.68;11.82;;;;;;;30.97;33.06;98909.31;4994810;28;20050;-74
2022/05/26 04:42:09;;;;;;;17.42;12.10;;;;;;;31.43;32.23;98894.84;4995081;28;20038;-74
2022/05/26 04:44:36;;;;;;;18.00;11.35;;;;;;;31.83;31.35;98902.63;4995953;28;20572;-75
2022/05/26 04:47:02;;;;;;;15.32;11.02;;;;;;;32.17;30.88;98905.22;4978436;28;20038;-74
2022/05/26 04:49:27;;;;;;;17.40;11.65;;;;;;;32.52;30.31;98917.41;4996344;28;20130;-74
2022/05/26 04:51:53;;;;;;;16.58;11.52;;;;;;;32.90;29.78;98907.47;4996070;28;20053;-74
2022/05/26 04:54:18;;;;;;;23.77;11.30;;;;;;;33.38;28.95;98912.13;4978601;28;20027;-74
2022/05/26 04:56:44;;;;;;;15.82;10.85;;;;;;;33.89;28.22;98899.66;4995848;28;20548;-74
2022/05/26 04:59:09;;;;;;;18.50;10.95;;;;;;;34.21;27.65;98903.25;4996004;28;20038;-74
2022/05/26 05:01:35;;;;;;;18.88;10.15;;;;;;;34.23;27.84;98909.22;4994868;28;20441;-74
2022/05/26 05:04:00;;;;;;;17.63;10.75;;;;;;;34.00;28.05;98899.66;4995134;28;20038;-74
2022/05/26 05:06:26;;;;;;;17.67;9.82;;;;;;;33.30;29.30;98913.44;4995745;28;20038;-74
2022/05/26 05:08:51;;;;;;;20.00;9.70;;;;;;;32.84;29.46;98911.22;4995640;28;20041;-74
2022/05/26 05:11:17;;;;;;;24.38;9.38;;;;;;;32.18;30.49;98903.31;4994717;28;20085;-74
2022/05/26 05:13:42;;;;;;;15.60;9.63;;;;;;;31.38;31.53;98904.50;4995512;28;20038;-74
2022/05/26 05:16:30;;;;;;;16.25;10.10;;;;;;;30.59;32.96;98918.91;4962695;28;20030;-74
2022/05/26 05:18:56;;;;;;;13.68;10.05;;;;;;;30.30;33.88;98910.03;4977970;28;20037;-73
2022/05/26 05:21:28;;;;;;;17.63;9.75;;;;;;;30.04;34.25;98916.81;4995597;28;20026;-73
2022/05/26 05:23:59;;;;;;;15.18;9.52;;;;;;;30.06;34.30;98917.38;4994412;28;20041;-73
2022/05/26 05:26:24;;;;;;;13.50;9.40;;;;;;;30.23;33.91;98928.22;4962772;28;20037;-74
2022/05/26 05:29:00;;;;;;;17.38;9.75;;;;;;;30.16;33.80;98922.97;4995271;28;20413;-73
2022/05/26 05:31:29;;;;;;;13.60;9.10;;;;;;;29.61;34.93;98924.28;4994224;28;20023;-73
2022/05/26 05:33:58;;;;;;;15.43;9.30;;;;;;;29.23;35.70;98923.72;4993985;28;20091;-73
2022/05/26 05:36:31;;;;;;;16.95;9.80;;;;;;;29.25;35.88;98944.19;4993851;28;20058;-73
2022/05/26 05:38:57;;;;;;;14.18;9.85;;;;;;;29.32;35.74;98931.44;4961745;28;20027;-74
2022/05/26 05:41:23;;;;;;;14.80;9.75;;;;;;;29.30;35.62;98931.66;4962096;28;20092;-73
2022/05/26 05:43:48;;;;;;;13.93;9.68;;;;;;;29.40;35.13;98942.66;4978053;28;20042;-73
2022/05/26 05:46:19;;;;;;;16.20;9.32;;;;;;;29.59;34.90;98939.84;4993897;28;20035;-73
2022/05/26 05:48:46;;;;;;;18.02;8.30;;;;;;;30.31;33.47;98942.13;4978374;28;20030;-73
2022/05/26 05:51:11;;;;;;;12.18;7.60;;;;;;;30.80;32.72;98938.91;4977615;28;20153;-74
2022/05/26 05:53:37;;;;;;;12.10;7.40;;;;;;;31.33;31.45;98936.00;4978338;28;20038;-73
2022/05/26 05:56:03;;;;;;;15.00;7.32;;;;;;;31.86;30.79;98945.31;4993828;28;20057;-73
2022/05/26 05:58:29;;;;;;;12.98;7.50;;;;;;;32.27;30.64;98940.41;4993821;28;20018;-78
2022/05/26 06:00:54;;;;;;;14.43;7.78;;;;;;;32.63;30.11;98948.06;4993386;28;20041;-78
2022/05/26 06:03:20;;;;;;;12.18;7.45;;;;;;;32.98;29.65;98950.25;4999443;28;20026;-81
2022/05/26 06:05:46;;;;;;;22.83;8.00;;;;;;;33.44;29.06;98951.66;4993594;28;20050;-77
2022/05/26 06:08:11;;;;;;;15.88;6.45;;;;;;;34.16;27.75;98957.38;4994741;28;20089;-77
2022/05/26 06:10:37;;;;;;;16.67;5.93;;;;;;;34.74;26.80;98958.09;4994339;28;20034;-77
2022/05/26 06:13:02;;;;;;;14.93;5.65;;;;;;;35.38;25.61;98961.31;4993319;28;20504;-78
2022/05/26 06:15:28;;;;;;;15.30;6.15;;;;;;;36.11;24.63;98953.72;4977107;28;20037;-77
2022/05/26 06:17:53;;;;;;;15.70;5.25;;;;;;;36.63;24.17;98955.03;4994198;28;20065;-77
2022/05/26 06:20:19;;;;;;;8.27;4.80;;;;;;;37.09;23.36;98951.13;4993196;28;20042;-77
2022/05/26 06:22:45;;;;;;;9.75;4.28;;;;;;;37.49;22.92;98957.25;4986373;28;20029;-76
2022/05/26 06:25:12;;;;;;;14.70;4.73;;;;;;;37.73;22.54;98954.53;4996228;28;20045;-75
2022/05/26 06:30:22;;;;;;;13.05;5.32;;;;;;;38.17;22.44;98956.16;5013710;28;20036;-76
2022/05/26 06:38:22;;;;;;;11.80;5.55;;;;;;;38.66;21.82;98939.66;5011423;28;20049;-75
2022/05/26 06:40:48;;;;;;;13.05;5.90;;;;;;;38.84;21.66;98941.53;4995041;28;20597;-76
2022/05/26 06:43:14;;;;;;;10.02;6.25;;;;;;;38.78;22.11;98942.72;4995093;28;20104;-77
2022/05/26 06:45:40;;;;;;;13.18;6.30;;;;;;;38.68;22.09;98943.69;5011642;28;20041;-77
2022/05/26 06:48:06;;;;;;;14.07;6.50;;;;;;;38.56;22.11;98943.31;4995042;28;20036;-77
2022/05/26 06:50:32;;;;;;;13.75;7.72;;;;;;;38.48;22.60;98949.47;5009801;28;20125;-76
2022/05/26 06:52:57;;;;;;;22.85;7.65;;;;;;;38.34;22.44;98950.19;5000153;28;20042;-77
2022/05/26 06:55:23;;;;;;;16.10;8.60;;;;;;;37.95;22.75;98950.44;5011230;28;20045;-77
2022/05/26 06:57:48;;;;;;;21.98;9.02;;;;;;;37.60;23.27;98944.31;5011334;28;20075;-78
2022/05/26 07:00:15;;;;;;;19.58;9.77;;;;;;;37.20;23.95;98949.09;5010981;28;20042;-76
2022/05/26 07:02:41;;;;;;;19.10;10.55;;;;;;;37.15;23.93;98952.69;5011047;28;20586;-76
2022/05/26 07:05:07;;;;;;;27.67;12.00;;;;;;;37.01;24.84;98952.56;4994495;28;20030;-76
2022/05/26 07:07:35;;;;;;;28.35;12.77;;;;;;;36.85;24.78;98946.44;5010914;28;20039;-76
2022/05/26 07:10:00;;;;;;;27.70;13.48;;;;;;;36.74;24.85;98951.16;5009009;28;20038;-76
2022/05/26 07:12:26;;;;;;;33.72;15.25;;;;;;;36.55;25.19;98951.00;4998239;28;20476;-76
2022/05/26 07:14:51;;;;;;;38.67;16.15;;;;;;;36.38;25.32;98953.31;5011222;28;20390;-77
2022/05/26 07:17:17;;;;;;;37.65;16.25;;;;;;;36.43;25.35;98953.25;5013178;28;20038;-77
2022/05/26 07:19:42;;;;;;;17.30;7.82;;;;;;;36.29;25.28;98958.50;5011655;28;20072;-78
2022/05/26 07:22:08;;;;;;;19.38;8.63;;;;;;;35.94;25.90;98954.06;5010304;28;20505;-78
2022/05/26 07:24:34;;;;;;;17.33;9.18;;;;;;;35.50;26.23;98950.13;5011249;28;20060;-78
2022/05/26 07:27:00;;;;;;;20.00;9.77;;;;;;;35.16;26.93;98948.03;4974370;28;20493;-78
2022/05/26 07:29:26;;;;;;;19.70;9.33;;;;;;;34.99;27.93;98948.31;4992027;28;20448;-75
2022/05/26 07:31:51;;;;;;;18.90;9.32;;;;;;;34.82;28.00;98950.50;5006427;28;20037;-75
2022/05/26 07:34:18;;;;;;;26.38;9.50;;;;;;;34.83;27.75;98949.41;5012700;28;20045;-78
2022/05/26 07:42:14;;;;;;;15.50;9.80;;;;;;;35.28;27.09;98948.56;5012719;28;20169;-77
2022/05/26 07:44:41;;;;;;;21.20;9.82;;;;;;;35.29;27.35;98954.81;5011539;28;20103;-77
2022/05/26 07:47:07;;;;;;;23.52;10.18;;;;;;;35.37;27.06;98953.44;5009418;28;20464;-77
2022/05/26 07:49:37;;;;;;;17.42;9.60;;;;;;;35.43;27.38;98949.63;5012420;28;20029;-76
2022/05/26 07:52:03;;;;;;;16.92;9.73;;;;;;;35.42;27.17;98951.50;4994784;28;20033;-76
2022/05/26 07:54:29;;;;;;;15.70;9.15;;;;;;;35.21;27.69;98960.75;5012596;28;20037;-77
2022/05/26 07:56:55;;;;;;;16.85;9.57;;;;;;;34.96;27.72;98955.09;5012563;28;20118;-77
2022/05/26 07:59:21;;;;;;;20.02;10.02;;;;;;;34.76;29.08;98955.91;4994739;28;20034;-76
2022/05/26 08:01:48;;;;;;;23.67;9.85;;;;;;;34.47;29.26;98961.00;5012707;28;20029;-75
2022/05/26 08:04:16;;;;;;;18.30;10.20;;;;;;;34.36;30.50;98960.16;4994951;28;20065;-78
2022/05/26 08:06:45;;;;;;;22.83;10.52;;;;;;;34.17;30.51;98949.00;5011347;28;20382;-76
2022/05/26 08:09:11;;;;;;;18.70;10.75;;;;;;;34.17;30.16;98953.59;5012759;28;20029;-75
2022/05/26 08:11:37;;;;;;;15.77;10.82;;;;;;;34.12;31.03;98957.13;5011147;28;20045;-75
2022/05/26 08:14:02;;;;;;;17.95;10.30;;;;;;;34.12;31.18;98957.13;5012326;28;20030;-76
2022/05/26 08:16:28;;;;;;;17.60;10.88;;;;;;;34.06;31.47;98963.59;5010203;28;20038;-75
2022/05/26 08:18:53;;;;;;;20.27;10.88;;;;;;;34.16;31.53;98954.69;4991337;28;20092;-75
2022/05/26 08:21:18;;;;;;;19.55;10.70;;;;;;;34.30;31.05;98957.72;4991056;28;20084;-75
2022/05/26 08:23:44;;;;;;;17.90;10.98;;;;;;;34.39;31.25;98959.63;4991107;28;20417;-76
2022/05/26 08:26:10;;;;;;;19.80;12.25;;;;;;;34.50;30.86;98963.19;4992624;28;20092;-76
2022/05/26 08:28:35;;;;;;;13.90;10.45;;;;;;;34.51;31.00;98956.69;4992216;28;20469;-76
2022/05/26 08:31:01;;;;;;;17.48;11.25;;;;;;;34.60;31.19;98957.78;5000144;28;20504;-75
2022/05/26 08:33:27;;;;;;;18.67;11.35;;;;;;;34.76;31.15;98958.63;5009850;28;20097;-75
2022/05/26 08:36:03;;;;;;;19.23;12.55;;;;;;;34.82;31.62;98955.91;4994159;28;20058;-75
2022/05/26 08:38:29;;;;;;;30.30;12.60;;;;;;;34.79;31.67;98962.69;5011179;28;20584;-77
2022/05/26 08:40:54;;;;;;;22.63;12.10;;;;;;;34.72;31.64;98951.28;5011836;28;20038;-76
2022/05/26 08:43:21;;;;;;;20.45;12.43;;;;;;;34.74;32.33;98952.69;5010765;28;20045;-76
2022/05/26 08:45:51;;;;;;;20.38;12.25;;;;;;;34.85;32.21;98953.47;4992945;28;20500;-76
2022/05/26 08:48:40;;;;;;;20.75;11.93;;;;;;;34.88;32.46;98950.22;4994556;28;20033;-78
2022/05/26 08:51:08;;;;;;;23.13;11.75;;;;;;;34.89;32.33;98951.03;5010870;28;20034;-78
2022/05/26 08:53:36;;;;;;;17.13;11.40;;;;;;;35.07;32.24;98960.50;4994557;28;20547;-78
2022/05/26 08:56:01;;;;;;;15.82;10.50;;;;;;;35.25;30.81;98949.13;4978792;28;20045;-79
2022/05/26 08:58:32;;;;;;;17.38;9.50;;;;;;;35.34;29.93;98960.22;4995394;28;20099;-78
2022/05/26 09:00:57;;;;;;;14.40;8.48;;;;;;;35.41;29.50;98971.59;4998511;28;20519;-78
2022/05/26 09:03:28;;;;;;;18.45;7.50;;;;;;;35.36;28.77;98968.06;4997595;28;20026;-78
2022/05/26 09:06:11;;;;;;;17.70;6.43;;;;;;;35.44;27.89;98971.06;4997833;28;20033;-78
2022/05/26 09:14:27;;;;;;;10.63;5.18;;;;;;;35.61;26.65;98973.44;5015286;28;20050;-78
2022/05/26 09:17:08;;;;;;;15.13;5.30;;;;;;;35.62;26.42;98966.91;5015113;28;20535;-77
2022/05/26 09:19:43;;;;;;;11.43;4.40;;;;;;;35.73;26.12;98965.00;5014049;28;20040;-77
2022/05/26 09:22:30;;;;;;;13.70;4.65;;;;;;;35.84;26.27;98963.88;5014878;28;20061;-77
2022/05/26 09:24:56;;;;;;;15.38;4.45;;;;;;;35.86;26.07;98956.25;5015397;28;20447;-77
2022/05/26 09:27:29;;;;;;;10.13;4.35;;;;;;;35.97;25.66;98969.81;5013833;28;20065;-78
2022/05/26 09:30:26;;;;;;;11.80;4.47;;;;;;;36.04;25.79;98975.72;5013543;28;20053;-77
2022/05/26 09:32:52;;;;;;;11.18;4.40;;;;;;;36.08;25.50;98957.78;5012797;28;20069;-78
2022/05/26 09:35:23;;;;;;;8.80;4.05;;;;;;;36.08;25.44;98963.22;5013310;28;20088;-77
2022/05/26 09:37:50;;;;;;;12.82;3.92;;;;;;;36.09;25.40;98955.88;5015001;28;20037;-78
2022/05/26 09:40:26;;;;;;;13.13;4.10;;;;;;;36.10;25.48;98955.59;5013540;28;20042;-78
2022/05/26 09:42:58;;;;;;;9.00;4.20;;;;;;;35.96;25.72;98954.59;5015169;28;20029;-78
2022/05/26 09:45:23;;;;;;;11.18;3.90;;;;;;;35.97;25.30;98967.09;4997193;28;20124;-77
2022/05/26 09:47:53;;;;;;;13.88;3.97;;;;;;;35.90;25.35;98970.13;4997296;28;20053;-77
2022/05/26 09:50:33;;;;;;;12.82;4.40;;;;;;;35.90;24.96;98972.00;5014676;28;20029;-77
2022/05/26 09:53:00;;;;;;;12.30;4.05;;;;;;;35.88;25.55;98972.28;5014382;28;20026;-77
2022/05/26 09:55:29;;;;;;;6.55;3.65;;;;;;;35.84;25.46;98965.78;5012805;28;20508;-77
2022/05/26 09:58:15;;;;;;;14.88;4.30;;;;;;;35.82;25.54;98971.50;4996987;28;20041;-77
2022/05/26 10:00:45;;;;;;;15.27;4.40;;;;;;;35.84;25.19;98969.31;5013430;28;20034;-77
2022/05/26 10:03:44;;;;;;;9.85;4.15;;;;;;;35.80;25.39;98976.41;4980917;28;20114;-77
2022/05/26 10:06:28;;;;;;;8.73;3.63;;;;;;;35.78;25.38;98969.63;5014397;28;20390;-78
2022/05/26 10:09:06;;;;;;;11.68;3.85;;;;;;;35.79;25.18;98972.06;5012799;28;20545;-78
2022/05/26 10:11:41;;;;;;;12.40;3.70;;;;;;;35.80;25.00;98972.84;5014223;28;20030;-78
2022/05/26 10:14:06;;;;;;;11.85;3.80;;;;;;;35.76;25.23;98969.09;5013177;28;20540;-78
2022/05/26 10:16:51;;;;;;;8.75;3.67;;;;;;;35.73;25.40;98959.56;5013857;28;20109;-78
2022/05/26 10:19:33;;;;;;;11.75;3.58;;;;;;;35.68;25.31;98962.31;5013078;28;20555;-79
2022/05/26 10:22:18;;;;;;;10.25;3.53;;;;;;;35.68;24.87;98965.81;5012554;28;20033;-78
2022/05/26 10:25:08;;;;;;;17.17;3.97;;;;;;;35.61;25.32;98964.47;5014107;28;20404;-78
2022/05/26 10:27:55;;;;;;;8.90;3.20;;;;;;;35.51;25.13;98965.34;4996057;28;20072;-78
2022/05/26 10:30:42;;;;;;;14.13;4.03;;;;;;;35.44;25.39;98967.50;5012302;28;20485;-78
2022/05/26 10:33:18;;;;;;;11.57;3.85;;;;;;;35.30;25.58;98967.28;5014166;28;20504;-78
2022/05/26 10:36:02;;;;;;;12.93;3.30;;;;;;;35.22;25.39;98968.63;5012384;28;20057;-78
2022/05/26 10:38:46;;;;;;;13.82;3.75;;;;;;;35.15;25.84;98963.50;5013627;28;20026;-78
2022/05/26 10:41:37;;;;;;;9.88;3.40;;;;;;;35.03;25.42;98960.25;5013053;28;20033;-78
2022/05/26 10:44:10;;;;;;;11.05;3.40;;;;;;;34.92;25.80;98961.34;5012656;28;20056;-77
2022/05/26 10:46:38;;;;;;;10.20;3.58;;;;;;;34.78;25.81;98958.34;5012363;28;20460;-78
2022/05/26 10:49:23;;;;;;;11.10;3.38;;;;;;;34.75;25.63;98959.72;5012371;28;20034;-77
2022/05/26 10:52:10;;;;;;;6.53;3.28;;;;;;;34.70;25.76;98962.38;4996397;28;20416;-78
2022/05/26 10:54:48;;;;;;;12.15;4.20;;;;;;;34.58;26.09;98951.78;5013539;28;20119;-78
2022/05/26 10:57:46;;;;;;;7.38;3.38;;;;;;;34.55;26.46;98962.38;4995597;28;20037;-78
2022/05/26 11:00:33;;;;;;;8.52;3.50;;;;;;;34.49;26.06;98964.28;5013103;28;20045;-78
2022/05/26 11:03:19;;;;;;;10.40;3.45;;;;;;;34.43;26.76;98968.06;5012367;28;20065;-78
2022/05/26 11:06:12;;;;;;;10.93;3.22;;;;;;;34.38;26.50;98960.75;5013283;28;20069;-78
2022/05/26 11:08:46;;;;;;;11.63;3.38;;;;;;;34.41;26.52;98954.78;5014986;28;20042;-78
2022/05/26 11:11:13;;;;;;;16.02;3.53;;;;;;;34.32;26.67;98953.69;4995797;28;20059;-78
2022/05/26 11:13:55;;;;;;;9.20;3.42;;;;;;;34.32;26.95;98955.59;5012974;28;20055;-78
2022/05/26 11:19:29;;;;;;;11.00;3.20;;;;;;;34.23;27.10;98949.84;5012353;28;20095;-78
2022/05/26 11:21:54;;;;;;;11.43;3.20;;;;;;;34.19;26.77;98954.97;5010890;28;20034;-78
2022/05/26 11:24:21;;;;;;;8.13;3.60;;;;;;;34.18;26.71;98939.78;4995135;28;20034;-78
2022/05/26 11:27:33;;;;;;;12.50;3.42;;;;;;;34.16;26.95;98938.41;5011666;28;20029;-78
2022/05/26 11:30:01;;;;;;;8.45;3.38;;;;;;;34.18;26.83;98928.97;5000170;28;20355;-78
2022/05/26 11:38:33;;;;;;;9.68;3.85;;;;;;;34.19;26.97;98925.19;4997503;28;20057;-78
2022/05/26 11:41:01;;;;;;;9.40;3.47;;;;;;;34.24;27.53;98929.81;5010490;28;20044;-78
2022/05/26 11:43:36;;;;;;;17.02;3.80;;;;;;;34.19;27.54;98932.47;5010587;28;20505;-78
2022/05/26 11:46:01;;;;;;;14.63;3.80;;;;;;;34.17;27.56;98926.50;5010297;28;20125;-78
2022/05/26 11:48:29;;;;;;;13.65;3.53;;;;;;;34.13;27.55;98926.25;5010701;28;20054;-78
2022/05/26 11:51:25;;;;;;;8.23;3.10;;;;;;;34.10;27.37;98924.06;5010670;28;20523;-78
2022/05/26 11:53:51;;;;;;;8.18;3.35;;;;;;;34.15;27.59;98923.28;5004083;28;20051;-77
2022/05/26 11:56:29;;;;;;;11.20;3.40;;;;;;;34.13;27.00;98920.84;4994147;28;20038;-77
2022/05/26 11:59:23;;;;;;;8.00;3.47;;;;;;;34.05;27.04;98919.44;5010737;28;20103;-77
2022/05/26 12:02:01;;;;;;;10.57;3.45;;;;;;;33.96;27.06;98910.22;4994385;28;20034;-78
2022/05/26 12:04:28;;;;;;;10.50;3.13;;;;;;;33.93;27.33;98908.03;5010349;28;20397;-78
2022/05/26 12:07:00;;;;;;;6.15;3.40;;;;;;;33.91;27.47;98899.38;5011726;28;20045;-78
2022/05/26 12:09:36;;;;;;;12.35;3.92;;;;;;;33.91;27.08;98895.88;5012709;28;20022;-78
2022/05/26 12:12:08;;;;;;;11.73;3.88;;;;;;;33.89;27.20;98891.53;5011380;28;20482;-78
2022/05/26 12:14:37;;;;;;;9.43;3.50;;;;;;;33.81;27.58;98899.34;5011149;28;20485;-78